sensor_id;sensor_type;location;lat;lon;timestamp;temperature;humidity
1455;DHT22;721;48.168;12.818;2024-03-29T00:01:17;5.00;24.90
1455;DHT22;721;48.168;12.818;2024-03-29T00:03:43;5.00;25.10
1455;DHT22;721;48.168;12.818;2024-03-29T00:06:09;5.00;25.80
1455;DHT22;721;48.168;12.818;2024-03-29T00:08:35;5.00;26.80
1455;DHT22;721;48.168;12.818;2024-03-29T00:11:01;4.90;28.20
1455;DHT22;721;48.168;12.818;2024-03-29T00:13:27;4.90;29.70
1455;DHT22;721;48.168;12.818;2024-03-29T00:15:53;4.90;29.00
1455;DHT22;721;48.168;12.818;2024-03-29T00:18:21;4.90;28.60
1455;DHT22;721;48.168;12.818;2024-03-29T00:20:47;5.00;28.20
1455;DHT22;721;48.168;12.818;2024-03-29T00:23:13;5.00;28.40
1455;DHT22;721;48.168;12.818;2024-03-29T00:25:39;5.00;27.90
1455;DHT22;721;48.168;12.818;2024-03-29T00:28:05;5.10;28.40
1455;DHT22;721;48.168;12.818;2024-03-29T00:30:31;5.10;27.90
1455;DHT22;721;48.168;12.818;2024-03-29T00:32:57;5.10;27.90
1455;DHT22;721;48.168;12.818;2024-03-29T00:35:24;5.10;27.90
1455;DHT22;721;48.168;12.818;2024-03-29T00:37:50;5.20;26.90
1455;DHT22;721;48.168;12.818;2024-03-29T00:40:16;5.20;25.90
1455;DHT22;721;48.168;12.818;2024-03-29T00:42:42;5.30;25.40
1455;DHT22;721;48.168;12.818;2024-03-29T00:45:08;5.30;25.40
1455;DHT22;721;48.168;12.818;2024-03-29T00:47:34;5.30;24.60
1455;DHT22;721;48.168;12.818;2024-03-29T00:50:00;5.50;23.40
1455;DHT22;721;48.168;12.818;2024-03-29T00:52:27;5.40;23.30
1455;DHT22;721;48.168;12.818;2024-03-29T00:54:53;5.40;23.60
1455;DHT22;721;48.168;12.818;2024-03-29T00:57:19;5.30;23.60
1455;DHT22;721;48.168;12.818;2024-03-29T00:59:46;5.40;23.70
1455;DHT22;721;48.168;12.818;2024-03-29T01:02:12;5.30;24.20
1455;DHT22;721;48.168;12.818;2024-03-29T01:04:38;5.30;24.20
1455;DHT22;721;48.168;12.818;2024-03-29T01:07:04;5.30;24.00
1455;DHT22;721;48.168;12.818;2024-03-29T01:09:31;5.40;23.80
1455;DHT22;721;48.168;12.818;2024-03-29T01:11:57;5.40;23.00
1455;DHT22;721;48.168;12.818;2024-03-29T01:14:23;5.40;23.50
1455;DHT22;721;48.168;12.818;2024-03-29T01:16:49;5.50;23.00
1455;DHT22;721;48.168;12.818;2024-03-29T01:19:15;5.50;21.80
1455;DHT22;721;48.168;12.818;2024-03-29T01:21:40;5.40;22.00
1455;DHT22;721;48.168;12.818;2024-03-29T01:24:06;5.40;22.40
1455;DHT22;721;48.168;12.818;2024-03-29T01:26:33;5.30;23.00
1455;DHT22;721;48.168;12.818;2024-03-29T01:29:00;5.30;22.90
1455;DHT22;721;48.168;12.818;2024-03-29T01:31:25;5.30;22.60
1455;DHT22;721;48.168;12.818;2024-03-29T01:33:51;5.20;22.70
1455;DHT22;721;48.168;12.818;2024-03-29T01:36:17;5.20;22.90
1455;DHT22;721;48.168;12.818;2024-03-29T01:38:43;5.30;22.80
1455;DHT22;721;48.168;12.818;2024-03-29T01:41:09;5.30;21.60
1455;DHT22;721;48.168;12.818;2024-03-29T01:43:36;5.30;21.50
1455;DHT22;721;48.168;12.818;2024-03-29T01:46:04;5.30;21.90
1455;DHT22;721;48.168;12.818;2024-03-29T01:48:31;5.30;21.20
1455;DHT22;721;48.168;12.818;2024-03-29T01:50:58;5.20;21.90
1455;DHT22;721;48.168;12.818;2024-03-29T01:53:26;5.30;21.40
1455;DHT22;721;48.168;12.818;2024-03-29T01:55:53;5.30;20.70
1455;DHT22;721;48.168;12.818;2024-03-29T01:58:21;5.30;20.70
1455;DHT22;721;48.168;12.818;2024-03-29T02:00:52;5.40;19.70
1455;DHT22;721;48.168;12.818;2024-03-29T02:03:19;5.30;20.30
1455;DHT22;721;48.168;12.818;2024-03-29T02:05:47;5.30;19.80
1455;DHT22;721;48.168;12.818;2024-03-29T02:08:14;5.30;19.50
1455;DHT22;721;48.168;12.818;2024-03-29T02:10:42;5.30;19.20
1455;DHT22;721;48.168;12.818;2024-03-29T02:13:09;5.20;19.10
1455;DHT22;721;48.168;12.818;2024-03-29T02:15:36;5.20;19.30
1455;DHT22;721;48.168;12.818;2024-03-29T02:18:05;5.20;19.50
1455;DHT22;721;48.168;12.818;2024-03-29T02:20:32;5.20;19.50
1455;DHT22;721;48.168;12.818;2024-03-29T02:23:02;5.20;18.50
1455;DHT22;721;48.168;12.818;2024-03-29T02:25:33;5.30;17.70
1455;DHT22;721;48.168;12.818;2024-03-29T02:28:01;5.40;19.00
1455;DHT22;721;48.168;12.818;2024-03-29T02:30:28;5.30;17.90
1455;DHT22;721;48.168;12.818;2024-03-29T02:32:56;5.40;17.80
1455;DHT22;721;48.168;12.818;2024-03-29T02:35:22;5.50;17.30
1455;DHT22;721;48.168;12.818;2024-03-29T02:37:50;5.60;16.00
1455;DHT22;721;48.168;12.818;2024-03-29T02:40:17;5.50;15.30
1455;DHT22;721;48.168;12.818;2024-03-29T02:42:45;5.50;15.10
1455;DHT22;721;48.168;12.818;2024-03-29T02:45:12;5.50;15.30
1455;DHT22;721;48.168;12.818;2024-03-29T02:47:38;5.60;14.80
1455;DHT22;721;48.168;12.818;2024-03-29T02:50:06;5.70;14.30
1455;DHT22;721;48.168;12.818;2024-03-29T02:52:32;5.60;15.10
1455;DHT22;721;48.168;12.818;2024-03-29T02:54:58;5.50;16.10
1455;DHT22;721;48.168;12.818;2024-03-29T02:57:24;5.50;16.30
1455;DHT22;721;48.168;12.818;2024-03-29T02:59:52;5.40;16.90
1455;DHT22;721;48.168;12.818;2024-03-29T03:02:18;5.30;16.30
1455;DHT22;721;48.168;12.818;2024-03-29T03:04:45;5.40;16.40
1455;DHT22;721;48.168;12.818;2024-03-29T03:07:11;5.40;16.10
1455;DHT22;721;48.168;12.818;2024-03-29T03:09:55;5.30;16.30
1455;DHT22;721;48.168;12.818;2024-03-29T03:12:39;5.30;16.30
1455;DHT22;721;48.168;12.818;2024-03-29T03:15:08;5.30;16.90
1455;DHT22;721;48.168;12.818;2024-03-29T03:17:33;5.20;17.10
1455;DHT22;721;48.168;12.818;2024-03-29T03:20:00;5.20;17.50
1455;DHT22;721;48.168;12.818;2024-03-29T03:22:26;5.20;17.40
1455;DHT22;721;48.168;12.818;2024-03-29T03:24:53;5.20;17.30
1455;DHT22;721;48.168;12.818;2024-03-29T03:27:18;5.20;17.80
1455;DHT22;721;48.168;12.818;2024-03-29T03:29:46;5.20;17.80
1455;DHT22;721;48.168;12.818;2024-03-29T03:32:13;5.20;17.40
1455;DHT22;721;48.168;12.818;2024-03-29T03:34:40;5.20;16.90
1455;DHT22;721;48.168;12.818;2024-03-29T03:37:05;5.20;16.30
1455;DHT22;721;48.168;12.818;2024-03-29T03:39:32;5.20;16.20
1455;DHT22;721;48.168;12.818;2024-03-29T03:41:59;5.20;15.90
1455;DHT22;721;48.168;12.818;2024-03-29T03:44:25;5.10;16.10
1455;DHT22;721;48.168;12.818;2024-03-29T03:46:54;5.10;16.10
1455;DHT22;721;48.168;12.818;2024-03-29T03:49:22;5.00;16.10
1455;DHT22;721;48.168;12.818;2024-03-29T03:51:49;5.00;16.10
1455;DHT22;721;48.168;12.818;2024-03-29T03:54:14;5.00;16.10
1455;DHT22;721;48.168;12.818;2024-03-29T03:56:41;5.10;16.10
1455;DHT22;721;48.168;12.818;2024-03-29T03:59:07;5.10;16.10
1455;DHT22;721;48.168;12.818;2024-03-29T04:01:34;5.10;15.40
1455;DHT22;721;48.168;12.818;2024-03-29T04:04:00;5.00;15.40
1455;DHT22;721;48.168;12.818;2024-03-29T04:06:28;5.00;15.00
1455;DHT22;721;48.168;12.818;2024-03-29T04:08:54;5.00;15.00
1455;DHT22;721;48.168;12.818;2024-03-29T04:11:21;4.90;15.60
1455;DHT22;721;48.168;12.818;2024-03-29T04:13:46;4.90;15.70
1455;DHT22;721;48.168;12.818;2024-03-29T04:16:13;4.90;15.70
1455;DHT22;721;48.168;12.818;2024-03-29T04:18:39;4.80;15.60
1455;DHT22;721;48.168;12.818;2024-03-29T04:21:06;4.70;15.90
1455;DHT22;721;48.168;12.818;2024-03-29T04:23:33;4.60;16.50
1455;DHT22;721;48.168;12.818;2024-03-29T04:26:00;4.60;16.90
1455;DHT22;721;48.168;12.818;2024-03-29T04:28:26;4.60;16.80
1455;DHT22;721;48.168;12.818;2024-03-29T04:30:53;4.60;16.50
1455;DHT22;721;48.168;12.818;2024-03-29T04:33:19;4.50;16.60
1455;DHT22;721;48.168;12.818;2024-03-29T04:35:54;4.40;16.50
1455;DHT22;721;48.168;12.818;2024-03-29T04:38:20;4.30;17.10
1455;DHT22;721;48.168;12.818;2024-03-29T04:40:48;4.30;17.80
1455;DHT22;721;48.168;12.818;2024-03-29T04:43:15;4.20;18.40
1455;DHT22;721;48.168;12.818;2024-03-29T04:45:43;4.10;19.50
1455;DHT22;721;48.168;12.818;2024-03-29T04:48:10;4.10;19.50
1455;DHT22;721;48.168;12.818;2024-03-29T04:50:37;4.20;19.50
1455;DHT22;721;48.168;12.818;2024-03-29T04:53:04;4.00;20.30
1455;DHT22;721;48.168;12.818;2024-03-29T04:55:31;4.00;20.50
1455;DHT22;721;48.168;12.818;2024-03-29T04:57:59;3.90;21.70
1455;DHT22;721;48.168;12.818;2024-03-29T05:00:26;3.80;23.20
1455;DHT22;721;48.168;12.818;2024-03-29T05:02:53;3.80;23.20
1455;DHT22;721;48.168;12.818;2024-03-29T05:05:20;3.80;23.20
1455;DHT22;721;48.168;12.818;2024-03-29T05:07:46;3.80;23.20
1455;DHT22;721;48.168;12.818;2024-03-29T05:10:13;3.80;23.40
1455;DHT22;721;48.168;12.818;2024-03-29T05:12:41;3.90;23.30
1455;DHT22;721;48.168;12.818;2024-03-29T05:15:09;3.90;23.30
1455;DHT22;721;48.168;12.818;2024-03-29T05:17:37;3.90;23.20
1455;DHT22;721;48.168;12.818;2024-03-29T05:20:04;3.90;23.30
1455;DHT22;721;48.168;12.818;2024-03-29T05:22:32;3.90;23.90
1455;DHT22;721;48.168;12.818;2024-03-29T05:24:58;3.90;24.00
1455;DHT22;721;48.168;12.818;2024-03-29T05:27:25;3.90;24.90
1455;DHT22;721;48.168;12.818;2024-03-29T05:29:52;4.00;24.70
1455;DHT22;721;48.168;12.818;2024-03-29T05:32:20;4.00;24.90
1455;DHT22;721;48.168;12.818;2024-03-29T05:34:46;4.00;25.10
1455;DHT22;721;48.168;12.818;2024-03-29T05:37:13;4.10;25.20
1455;DHT22;721;48.168;12.818;2024-03-29T05:39:43;4.10;24.80
1455;DHT22;721;48.168;12.818;2024-03-29T05:42:09;4.10;26.00
1455;DHT22;721;48.168;12.818;2024-03-29T05:44:37;4.20;25.70
1455;DHT22;721;48.168;12.818;2024-03-29T05:47:04;4.20;25.90
1455;DHT22;721;48.168;12.818;2024-03-29T05:49:32;4.30;25.00
1455;DHT22;721;48.168;12.818;2024-03-29T05:51:59;4.40;24.60
1455;DHT22;721;48.168;12.818;2024-03-29T05:54:26;4.50;23.70
1455;DHT22;721;48.168;12.818;2024-03-29T05:56:53;4.50;23.80
1455;DHT22;721;48.168;12.818;2024-03-29T05:59:20;4.60;23.80
1455;DHT22;721;48.168;12.818;2024-03-29T06:01:46;4.60;23.70
1455;DHT22;721;48.168;12.818;2024-03-29T06:04:13;4.60;23.80
1455;DHT22;721;48.168;12.818;2024-03-29T06:06:45;4.70;23.80
1455;DHT22;721;48.168;12.818;2024-03-29T06:09:12;4.70;24.20
1455;DHT22;721;48.168;12.818;2024-03-29T06:11:39;4.80;24.90
1455;DHT22;721;48.168;12.818;2024-03-29T06:14:05;5.00;39.10
1455;DHT22;721;48.168;12.818;2024-03-29T06:16:50;5.20;33.40
1455;DHT22;721;48.168;12.818;2024-03-29T06:19:34;5.40;33.20
1455;DHT22;721;48.168;12.818;2024-03-29T06:22:02;5.60;25.40
1455;DHT22;721;48.168;12.818;2024-03-29T06:24:29;5.50;22.40
1455;DHT22;721;48.168;12.818;2024-03-29T06:26:58;5.60;21.70
1455;DHT22;721;48.168;12.818;2024-03-29T06:29:24;5.60;20.50
1455;DHT22;721;48.168;12.818;2024-03-29T06:31:51;5.70;20.10
1455;DHT22;721;48.168;12.818;2024-03-29T06:34:18;5.70;20.40
1455;DHT22;721;48.168;12.818;2024-03-29T06:36:45;5.70;20.90
1455;DHT22;721;48.168;12.818;2024-03-29T06:39:13;5.60;21.60
1455;DHT22;721;48.168;12.818;2024-03-29T06:41:39;5.60;22.30
1455;DHT22;721;48.168;12.818;2024-03-29T06:44:06;5.70;21.50
1455;DHT22;721;48.168;12.818;2024-03-29T06:46:33;5.60;21.10
1455;DHT22;721;48.168;12.818;2024-03-29T06:49:00;5.50;20.60
1455;DHT22;721;48.168;12.818;2024-03-29T06:51:27;5.40;22.50
1455;DHT22;721;48.168;12.818;2024-03-29T06:53:54;5.60;22.20
1455;DHT22;721;48.168;12.818;2024-03-29T06:56:22;5.70;22.70
1455;DHT22;721;48.168;12.818;2024-03-29T06:58:48;5.80;23.20
1455;DHT22;721;48.168;12.818;2024-03-29T07:01:15;5.90;24.50
1455;DHT22;721;48.168;12.818;2024-03-29T07:03:42;6.00;23.00
1455;DHT22;721;48.168;12.818;2024-03-29T07:06:09;6.10;22.50
1455;DHT22;721;48.168;12.818;2024-03-29T07:08:36;6.10;23.00
1455;DHT22;721;48.168;12.818;2024-03-29T07:11:03;6.30;23.60
1455;DHT22;721;48.168;12.818;2024-03-29T07:13:31;6.40;22.10
1455;DHT22;721;48.168;12.818;2024-03-29T07:15:58;6.60;20.40
1455;DHT22;721;48.168;12.818;2024-03-29T07:18:25;6.80;20.00
1455;DHT22;721;48.168;12.818;2024-03-29T07:20:52;6.90;18.50
1455;DHT22;721;48.168;12.818;2024-03-29T07:23:19;7.00;18.40
1455;DHT22;721;48.168;12.818;2024-03-29T07:25:57;7.20;18.40
1455;DHT22;721;48.168;12.818;2024-03-29T07:28:24;7.30;17.60
1455;DHT22;721;48.168;12.818;2024-03-29T07:30:52;7.30;16.80
1455;DHT22;721;48.168;12.818;2024-03-29T07:33:19;7.50;17.80
1455;DHT22;721;48.168;12.818;2024-03-29T07:35:49;7.60;16.20
1455;DHT22;721;48.168;12.818;2024-03-29T07:38:16;7.70;16.50
1455;DHT22;721;48.168;12.818;2024-03-29T07:40:43;7.90;15.90
1455;DHT22;721;48.168;12.818;2024-03-29T07:43:11;8.00;15.70
1455;DHT22;721;48.168;12.818;2024-03-29T07:45:40;8.20;16.00
1455;DHT22;721;48.168;12.818;2024-03-29T07:48:11;8.40;15.70
1455;DHT22;721;48.168;12.818;2024-03-29T07:50:38;8.50;14.30
1455;DHT22;721;48.168;12.818;2024-03-29T07:53:05;8.70;12.80
1455;DHT22;721;48.168;12.818;2024-03-29T07:55:32;8.80;12.60
1455;DHT22;721;48.168;12.818;2024-03-29T07:57:58;8.90;12.70
1455;DHT22;721;48.168;12.818;2024-03-29T08:00:25;9.00;13.70
1455;DHT22;721;48.168;12.818;2024-03-29T08:02:52;9.20;12.80
1455;DHT22;721;48.168;12.818;2024-03-29T08:05:20;9.20;10.10
1455;DHT22;721;48.168;12.818;2024-03-29T08:07:48;9.40;9.90
1455;DHT22;721;48.168;12.818;2024-03-29T08:10:14;9.70;12.40
1455;DHT22;721;48.168;12.818;2024-03-29T08:12:41;9.70;13.10
1455;DHT22;721;48.168;12.818;2024-03-29T08:15:08;9.80;9.20
1455;DHT22;721;48.168;12.818;2024-03-29T08:17:36;10.00;10.50
1455;DHT22;721;48.168;12.818;2024-03-29T08:20:04;10.10;8.20
1455;DHT22;721;48.168;12.818;2024-03-29T08:22:33;10.30;8.10
1455;DHT22;721;48.168;12.818;2024-03-29T08:25:00;10.40;8.50
1455;DHT22;721;48.168;12.818;2024-03-29T08:27:27;10.50;8.70
1455;DHT22;721;48.168;12.818;2024-03-29T08:29:54;10.60;10.60
1455;DHT22;721;48.168;12.818;2024-03-29T08:32:21;10.80;9.50
1455;DHT22;721;48.168;12.818;2024-03-29T08:34:48;11.00;9.10
1455;DHT22;721;48.168;12.818;2024-03-29T08:37:14;11.10;8.70
1455;DHT22;721;48.168;12.818;2024-03-29T08:39:43;11.20;8.90
1455;DHT22;721;48.168;12.818;2024-03-29T08:42:09;11.30;8.70
1455;DHT22;721;48.168;12.818;2024-03-29T08:44:37;11.50;8.90
1455;DHT22;721;48.168;12.818;2024-03-29T08:47:04;11.70;9.40
1455;DHT22;721;48.168;12.818;2024-03-29T08:49:31;11.80;8.30
1455;DHT22;721;48.168;12.818;2024-03-29T08:51:57;12.00;7.70
1455;DHT22;721;48.168;12.818;2024-03-29T08:54:27;12.00;6.40
1455;DHT22;721;48.168;12.818;2024-03-29T08:56:56;12.20;7.00
1455;DHT22;721;48.168;12.818;2024-03-29T08:59:22;12.30;8.00
1455;DHT22;721;48.168;12.818;2024-03-29T09:01:49;12.40;6.90
1455;DHT22;721;48.168;12.818;2024-03-29T09:04:18;12.40;6.40
1455;DHT22;721;48.168;12.818;2024-03-29T09:06:45;12.50;4.90
1455;DHT22;721;48.168;12.818;2024-03-29T09:09:12;12.60;4.00
1455;DHT22;721;48.168;12.818;2024-03-29T09:11:39;12.60;6.10
1455;DHT22;721;48.168;12.818;2024-03-29T09:14:07;12.60;4.60
1455;DHT22;721;48.168;12.818;2024-03-29T09:16:35;12.70;5.40
1455;DHT22;721;48.168;12.818;2024-03-29T09:19:02;12.80;4.20
1455;DHT22;721;48.168;12.818;2024-03-29T09:21:30;12.80;4.20
1455;DHT22;721;48.168;12.818;2024-03-29T09:23:57;12.80;5.30
1455;DHT22;721;48.168;12.818;2024-03-29T09:26:23;12.90;4.80
1455;DHT22;721;48.168;12.818;2024-03-29T09:28:50;13.00;5.80
1455;DHT22;721;48.168;12.818;2024-03-29T09:31:18;13.10;5.20
1455;DHT22;721;48.168;12.818;2024-03-29T09:33:45;13.20;5.10
1455;DHT22;721;48.168;12.818;2024-03-29T09:36:19;13.30;4.50
1455;DHT22;721;48.168;12.818;2024-03-29T09:38:46;13.40;4.60
1455;DHT22;721;48.168;12.818;2024-03-29T09:41:14;13.60;4.70
1455;DHT22;721;48.168;12.818;2024-03-29T09:43:42;13.60;4.70
1455;DHT22;721;48.168;12.818;2024-03-29T09:46:10;13.70;3.50
1455;DHT22;721;48.168;12.818;2024-03-29T09:48:40;13.80;3.00
1455;DHT22;721;48.168;12.818;2024-03-29T09:51:08;13.90;4.00
1455;DHT22;721;48.168;12.818;2024-03-29T09:53:36;13.90;2.80
1455;DHT22;721;48.168;12.818;2024-03-29T09:56:03;14.00;3.30
1455;DHT22;721;48.168;12.818;2024-03-29T09:58:30;14.10;2.70
1455;DHT22;721;48.168;12.818;2024-03-29T10:00:57;14.20;2.40
1455;DHT22;721;48.168;12.818;2024-03-29T10:03:25;14.30;2.60
1455;DHT22;721;48.168;12.818;2024-03-29T10:05:56;14.30;1.70
1455;DHT22;721;48.168;12.818;2024-03-29T10:08:25;14.40;1.00
1455;DHT22;721;48.168;12.818;2024-03-29T10:10:53;14.50;1.00
1455;DHT22;721;48.168;12.818;2024-03-29T10:13:20;14.50;1.00
1455;DHT22;721;48.168;12.818;2024-03-29T10:15:49;14.60;1.00
1455;DHT22;721;48.168;12.818;2024-03-29T10:18:17;14.60;1.00
1455;DHT22;721;48.168;12.818;2024-03-29T10:20:45;14.70;1.00
1455;DHT22;721;48.168;12.818;2024-03-29T10:23:14;14.80;1.00
1455;DHT22;721;48.168;12.818;2024-03-29T10:25:43;14.90;1.00
1455;DHT22;721;48.168;12.818;2024-03-29T10:28:11;14.90;1.00
1455;DHT22;721;48.168;12.818;2024-03-29T10:30:38;15.00;1.00
1455;DHT22;721;48.168;12.818;2024-03-29T10:33:05;15.10;1.00
1455;DHT22;721;48.168;12.818;2024-03-29T10:35:31;15.10;1.00
1455;DHT22;721;48.168;12.818;2024-03-29T10:38:01;15.20;1.80
1455;DHT22;721;48.168;12.818;2024-03-29T10:40:30;15.40;1.70
1455;DHT22;721;48.168;12.818;2024-03-29T10:42:57;15.60;1.60
1455;DHT22;721;48.168;12.818;2024-03-29T10:45:26;15.80;1.00
1455;DHT22;721;48.168;12.818;2024-03-29T10:47:53;15.80;1.00
1455;DHT22;721;48.168;12.818;2024-03-29T10:50:22;16.00;1.00
1455;DHT22;721;48.168;12.818;2024-03-29T10:52:49;16.20;1.00
1455;DHT22;721;48.168;12.818;2024-03-29T10:55:16;16.30;1.00
1455;DHT22;721;48.168;12.818;2024-03-29T10:57:46;16.40;1.00
1455;DHT22;721;48.168;12.818;2024-03-29T11:00:16;16.50;1.00
1455;DHT22;721;48.168;12.818;2024-03-29T11:02:49;16.70;1.00
1455;DHT22;721;48.168;12.818;2024-03-29T11:05:17;16.90;1.00
1455;DHT22;721;48.168;12.818;2024-03-29T11:07:45;16.90;1.00
1455;DHT22;721;48.168;12.818;2024-03-29T11:10:15;17.00;1.00
1455;DHT22;721;48.168;12.818;2024-03-29T11:12:53;17.10;1.00
1455;DHT22;721;48.168;12.818;2024-03-29T11:15:28;17.20;1.00
1455;DHT22;721;48.168;12.818;2024-03-29T11:17:56;17.30;1.00
1455;DHT22;721;48.168;12.818;2024-03-29T11:20:27;17.40;1.00
1455;DHT22;721;48.168;12.818;2024-03-29T11:23:02;17.60;1.00
1455;DHT22;721;48.168;12.818;2024-03-29T11:25:39;17.90;1.00
1455;DHT22;721;48.168;12.818;2024-03-29T11:28:07;17.90;1.00
1455;DHT22;721;48.168;12.818;2024-03-29T11:30:40;18.10;1.00
1455;DHT22;721;48.168;12.818;2024-03-29T11:33:07;18.20;1.00
1455;DHT22;721;48.168;12.818;2024-03-29T11:35:39;18.30;1.00
1455;DHT22;721;48.168;12.818;2024-03-29T11:38:06;18.40;1.00
1455;DHT22;721;48.168;12.818;2024-03-29T11:40:33;18.40;1.00
1455;DHT22;721;48.168;12.818;2024-03-29T11:43:00;18.30;1.00
1455;DHT22;721;48.168;12.818;2024-03-29T11:45:29;18.00;1.00
1455;DHT22;721;48.168;12.818;2024-03-29T11:48:02;17.80;1.00
1455;DHT22;721;48.168;12.818;2024-03-29T11:50:32;17.80;1.00
1455;DHT22;721;48.168;12.818;2024-03-29T11:53:02;18.00;1.00
1455;DHT22;721;48.168;12.818;2024-03-29T11:55:29;18.20;1.00
1455;DHT22;721;48.168;12.818;2024-03-29T11:57:56;18.20;1.00
1455;DHT22;721;48.168;12.818;2024-03-29T12:00:24;18.40;1.00
1455;DHT22;721;48.168;12.818;2024-03-29T12:02:56;18.90;1.00
1455;DHT22;721;48.168;12.818;2024-03-29T12:05:24;19.40;1.00
1455;DHT22;721;48.168;12.818;2024-03-29T12:07:50;19.60;1.00
1455;DHT22;721;48.168;12.818;2024-03-29T12:10:17;19.80;1.00
1455;DHT22;721;48.168;12.818;2024-03-29T12:12:44;19.90;1.00
1455;DHT22;721;48.168;12.818;2024-03-29T12:15:12;20.20;1.00
1455;DHT22;721;48.168;12.818;2024-03-29T12:17:39;20.50;1.00
1455;DHT22;721;48.168;12.818;2024-03-29T12:20:10;20.80;1.00
1455;DHT22;721;48.168;12.818;2024-03-29T12:22:38;21.20;1.00
1455;DHT22;721;48.168;12.818;2024-03-29T12:25:05;21.50;1.00
1455;DHT22;721;48.168;12.818;2024-03-29T12:27:32;21.70;1.00
1455;DHT22;721;48.168;12.818;2024-03-29T12:29:59;21.80;1.00
1455;DHT22;721;48.168;12.818;2024-03-29T12:32:26;22.00;1.00
1455;DHT22;721;48.168;12.818;2024-03-29T12:34:53;22.30;1.00
1455;DHT22;721;48.168;12.818;2024-03-29T12:37:22;22.60;1.00
1455;DHT22;721;48.168;12.818;2024-03-29T12:39:51;22.70;1.00
1455;DHT22;721;48.168;12.818;2024-03-29T12:42:21;22.70;1.00
1455;DHT22;721;48.168;12.818;2024-03-29T12:44:48;22.80;1.00
1455;DHT22;721;48.168;12.818;2024-03-29T12:47:15;23.00;1.00
1455;DHT22;721;48.168;12.818;2024-03-29T12:49:42;23.20;1.00
1455;DHT22;721;48.168;12.818;2024-03-29T12:52:09;23.10;1.00
1455;DHT22;721;48.168;12.818;2024-03-29T12:54:38;23.10;1.00
1455;DHT22;721;48.168;12.818;2024-03-29T12:57:05;23.20;1.00
1455;DHT22;721;48.168;12.818;2024-03-29T12:59:33;23.40;1.00
1455;DHT22;721;48.168;12.818;2024-03-29T13:02:00;23.50;1.00
1455;DHT22;721;48.168;12.818;2024-03-29T13:04:29;23.60;1.00
1455;DHT22;721;48.168;12.818;2024-03-29T13:06:56;23.70;1.00
1455;DHT22;721;48.168;12.818;2024-03-29T13:09:23;23.80;1.00
1455;DHT22;721;48.168;12.818;2024-03-29T13:11:51;24.10;1.00
1455;DHT22;721;48.168;12.818;2024-03-29T13:14:18;24.30;1.00
1455;DHT22;721;48.168;12.818;2024-03-29T13:16:45;24.50;1.00
1455;DHT22;721;48.168;12.818;2024-03-29T13:19:12;24.50;1.00
1455;DHT22;721;48.168;12.818;2024-03-29T13:21:39;24.50;1.00
1455;DHT22;721;48.168;12.818;2024-03-29T13:24:06;24.70;1.00
1455;DHT22;721;48.168;12.818;2024-03-29T13:26:33;24.70;1.00
1455;DHT22;721;48.168;12.818;2024-03-29T13:29:01;24.90;1.00
1455;DHT22;721;48.168;12.818;2024-03-29T13:31:27;24.90;1.00
1455;DHT22;721;48.168;12.818;2024-03-29T13:33:55;25.20;1.00
1455;DHT22;721;48.168;12.818;2024-03-29T13:36:29;25.00;1.00
1455;DHT22;721;48.168;12.818;2024-03-29T13:38:56;25.10;1.00
1455;DHT22;721;48.168;12.818;2024-03-29T13:41:22;25.40;1.00
1455;DHT22;721;48.168;12.818;2024-03-29T13:43:51;25.70;1.00
1455;DHT22;721;48.168;12.818;2024-03-29T13:46:19;25.90;1.00
1455;DHT22;721;48.168;12.818;2024-03-29T13:48:46;25.60;1.00
1455;DHT22;721;48.168;12.818;2024-03-29T13:51:13;25.10;1.00
1455;DHT22;721;48.168;12.818;2024-03-29T13:53:41;25.00;1.00
1455;DHT22;721;48.168;12.818;2024-03-29T13:56:08;24.80;1.00
1455;DHT22;721;48.168;12.818;2024-03-29T13:58:35;24.70;1.00
1455;DHT22;721;48.168;12.818;2024-03-29T14:01:02;24.60;1.00
1455;DHT22;721;48.168;12.818;2024-03-29T14:03:30;24.80;1.00
1455;DHT22;721;48.168;12.818;2024-03-29T14:05:57;25.00;1.00
1455;DHT22;721;48.168;12.818;2024-03-29T14:08:24;25.60;1.00
1455;DHT22;721;48.168;12.818;2024-03-29T14:10:51;25.80;1.00
1455;DHT22;721;48.168;12.818;2024-03-29T14:13:18;26.00;1.00
1455;DHT22;721;48.168;12.818;2024-03-29T14:15:45;26.30;1.00
1455;DHT22;721;48.168;12.818;2024-03-29T14:18:12;26.60;1.00
1455;DHT22;721;48.168;12.818;2024-03-29T14:20:40;26.80;1.00
1455;DHT22;721;48.168;12.818;2024-03-29T14:25:38;26.60;1.00
1455;DHT22;721;48.168;12.818;2024-03-29T14:28:05;26.60;1.00
1455;DHT22;721;48.168;12.818;2024-03-29T14:30:32;26.60;1.00
1455;DHT22;721;48.168;12.818;2024-03-29T14:32:59;26.90;1.00
1455;DHT22;721;48.168;12.818;2024-03-29T14:35:31;27.10;1.00
1455;DHT22;721;48.168;12.818;2024-03-29T14:38:00;27.10;1.00
1455;DHT22;721;48.168;12.818;2024-03-29T14:40:27;27.00;1.00
1455;DHT22;721;48.168;12.818;2024-03-29T14:42:53;26.90;1.00
1455;DHT22;721;48.168;12.818;2024-03-29T14:45:21;26.70;1.00
1455;DHT22;721;48.168;12.818;2024-03-29T14:47:48;26.20;1.00
1455;DHT22;721;48.168;12.818;2024-03-29T14:50:15;25.90;1.00
1455;DHT22;721;48.168;12.818;2024-03-29T14:52:44;25.80;1.00
1455;DHT22;721;48.168;12.818;2024-03-29T14:55:12;25.70;1.00
1455;DHT22;721;48.168;12.818;2024-03-29T14:57:39;25.30;1.00
1455;DHT22;721;48.168;12.818;2024-03-29T15:00:07;25.20;1.00
1455;DHT22;721;48.168;12.818;2024-03-29T15:02:35;25.10;1.00
1455;DHT22;721;48.168;12.818;2024-03-29T15:05:02;25.20;1.00
1455;DHT22;721;48.168;12.818;2024-03-29T15:07:31;25.10;1.00
1455;DHT22;721;48.168;12.818;2024-03-29T15:09:58;24.90;1.00
1455;DHT22;721;48.168;12.818;2024-03-29T15:12:27;24.80;1.00
1455;DHT22;721;48.168;12.818;2024-03-29T15:14:54;24.70;1.00
1455;DHT22;721;48.168;12.818;2024-03-29T15:17:21;24.50;1.00
1455;DHT22;721;48.168;12.818;2024-03-29T15:19:48;24.40;1.00
1455;DHT22;721;48.168;12.818;2024-03-29T15:22:16;24.40;1.00
1455;DHT22;721;48.168;12.818;2024-03-29T15:24:43;24.30;1.00
1455;DHT22;721;48.168;12.818;2024-03-29T15:27:10;24.10;1.00
1455;DHT22;721;48.168;12.818;2024-03-29T15:29:54;24.00;1.00
1455;DHT22;721;48.168;12.818;2024-03-29T15:32:22;24.00;1.00
1455;DHT22;721;48.168;12.818;2024-03-29T15:34:51;23.90;1.00
1455;DHT22;721;48.168;12.818;2024-03-29T15:37:18;23.80;1.00
1455;DHT22;721;48.168;12.818;2024-03-29T15:39:45;23.80;1.00
1455;DHT22;721;48.168;12.818;2024-03-29T15:42:12;23.60;1.00
1455;DHT22;721;48.168;12.818;2024-03-29T15:44:38;23.50;1.00
1455;DHT22;721;48.168;12.818;2024-03-29T15:47:06;23.40;1.00
1455;DHT22;721;48.168;12.818;2024-03-29T15:49:34;23.30;1.00
1455;DHT22;721;48.168;12.818;2024-03-29T15:52:01;23.00;1.00
1455;DHT22;721;48.168;12.818;2024-03-29T15:54:28;22.80;1.00
1455;DHT22;721;48.168;12.818;2024-03-29T15:56:54;22.60;1.00
1455;DHT22;721;48.168;12.818;2024-03-29T15:59:21;22.60;1.00
1455;DHT22;721;48.168;12.818;2024-03-29T16:01:49;22.70;1.00
1455;DHT22;721;48.168;12.818;2024-03-29T16:04:17;22.60;1.00
1455;DHT22;721;48.168;12.818;2024-03-29T16:06:45;22.50;1.00
1455;DHT22;721;48.168;12.818;2024-03-29T16:09:11;22.60;1.00
1455;DHT22;721;48.168;12.818;2024-03-29T16:11:39;22.50;1.00
1455;DHT22;721;48.168;12.818;2024-03-29T16:14:05;22.40;1.00
1455;DHT22;721;48.168;12.818;2024-03-29T16:16:33;22.40;1.00
1455;DHT22;721;48.168;12.818;2024-03-29T16:19:00;22.30;1.00
1455;DHT22;721;48.168;12.818;2024-03-29T16:21:27;22.40;1.00